Time;durP1;ratioP1;P1;durP2;ratioP2;P2;SDS_P1;SDS_P2;PMS_P1;PMS_P2;Temp;Humidity;BMP_temperature;BMP_pressure;BME280_temperature;BME280_humidity;BME280_pressure;Samples;Min_cycle;Max_cycle;Signal;HPM_P1;HPM_P2
2023/05/16 00:02:24;;;;;;;;;;;14.30;99.90;;;;;;5070501;28;19958;-79
2023/05/16 00:04:50;;;;;;;;;;;14.30;99.90;;;;;;5069385;28;19915;-79
2023/05/16 00:07:16;;;;;;;;;;;14.30;99.90;;;;;;5069099;28;20296;-79
2023/05/16 00:09:41;;;;;;;;;;;14.20;99.90;;;;;;5070617;28;19908;-78
2023/05/16 00:12:07;;;;;;;;;;;14.20;99.90;;;;;;5070564;28;19909;-78
2023/05/16 00:14:34;;;;;;;;;;;14.30;99.90;;;;;;5070361;28;20463;-79
2023/05/16 00:17:00;;;;;;;;;;;14.20;99.90;;;;;;5069106;28;19908;-78
2023/05/16 00:19:26;;;;;;;;;;;14.20;99.90;;;;;;5070290;28;20283;-79
2023/05/16 00:21:52;;;;;;;;;;;14.20;99.90;;;;;;5068948;28;20271;-77
2023/05/16 00:24:17;;;;;;;;;;;14.20;99.90;;;;;;5070349;28;19908;-79
2023/05/16 00:26:43;;;;;;;;;;;14.20;99.90;;;;;;5070030;28;20439;-79
2023/05/16 00:29:08;;;;;;;;;;;14.20;99.90;;;;;;5069706;28;19998;-78
2023/05/16 00:31:34;;;;;;;;;;;14.10;99.90;;;;;;5070097;28;19908;-79
2023/05/16 00:34:00;;;;;;;;;;;14.10;99.90;;;;;;5068736;28;19908;-79
2023/05/16 00:36:25;;;;;;;;;;;14.10;99.90;;;;;;5069632;28;20001;-79
2023/05/16 00:38:51;;;;;;;;;;;14.20;99.90;;;;;;5069748;28;19912;-79
2023/05/16 00:41:16;;;;;;;;;;;14.10;99.90;;;;;;5068771;28;19945;-78
2023/05/16 00:43:42;;;;;;;;;;;14.00;99.90;;;;;;5069938;28;19912;-79
2023/05/16 00:46:07;;;;;;;;;;;14.00;99.90;;;;;;5068292;28;19914;-78
2023/05/16 00:48:33;;;;;;;;;;;14.00;99.90;;;;;;5067846;28;19921;-79
2023/05/16 00:51:00;;;;;;;;;;;14.00;99.90;;;;;;5068668;28;20261;-78
2023/05/16 00:53:25;;;;;;;;;;;14.00;99.90;;;;;;5068447;28;20379;-77
2023/05/16 00:55:51;;;;;;;;;;;14.00;99.90;;;;;;5068499;28;19909;-76
2023/05/16 00:58:17;;;;;;;;;;;13.90;99.90;;;;;;5069655;28;19909;-77
2023/05/16 01:00:44;;;;;;;;;;;13.90;99.90;;;;;;5069596;28;19905;-78
2023/05/16 01:03:09;;;;;;;;;;;14.00;99.90;;;;;;5068289;28;20019;-77
2023/05/16 01:05:35;;;;;;;;;;;14.00;99.90;;;;;;5069546;28;19991;-77
2023/05/16 01:08:00;;;;;;;;;;;13.90;99.90;;;;;;5069272;28;19956;-78
2023/05/16 01:10:31;;;;;;;;;;;13.90;99.90;;;;;;5069458;28;19915;-78
2023/05/16 01:13:02;;;;;;;;;;;13.90;99.90;;;;;;5069312;28;20371;-77
2023/05/16 01:15:30;;;;;;;;;;;13.90;99.90;;;;;;5069362;28;19954;-78
2023/05/16 01:18:01;;;;;;;;;;;13.90;99.90;;;;;;5068090;28;20379;-77
2023/05/16 01:20:27;;;;;;;;;;;13.80;99.90;;;;;;5069247;28;20369;-77
2023/05/16 01:23:12;;;;;;;;;;;13.80;99.90;;;;;;5069215;28;19911;-77
2023/05/16 01:25:46;;;;;;;;;;;13.80;99.90;;;;;;5069282;28;19912;-78
2023/05/16 01:28:12;;;;;;;;;;;13.80;99.90;;;;;;5068888;28;19927;-76
2023/05/16 01:30:38;;;;;;;;;;;13.80;99.90;;;;;;5067463;28;19908;-79
2023/05/16 01:33:04;;;;;;;;;;;13.80;99.90;;;;;;5067788;28;19908;-78
2023/05/16 01:35:30;;;;;;;;;;;13.80;99.90;;;;;;5067870;28;19915;-78
2023/05/16 01:38:08;;;;;;;;;;;13.80;99.90;;;;;;5068888;28;19904;-78
2023/05/16 01:40:52;;;;;;;;;;;13.80;99.90;;;;;;5067465;28;19909;-79
2023/05/16 01:43:23;;;;;;;;;;;13.70;99.90;;;;;;5069023;28;19954;-77
2023/05/16 01:45:54;;;;;;;;;;;13.70;99.90;;;;;;5068930;28;20395;-77
2023/05/16 01:48:21;;;;;;;;;;;13.70;99.90;;;;;;5068138;28;19919;-79
2023/05/16 01:50:51;;;;;;;;;;;13.70;99.90;;;;;;5068524;28;19910;-78
2023/05/16 01:53:21;;;;;;;;;;;13.70;99.90;;;;;;5068876;28;19954;-79
2023/05/16 01:55:48;;;;;;;;;;;13.70;99.90;;;;;;5067653;28;20002;-78
2023/05/16 01:58:14;;;;;;;;;;;13.70;99.90;;;;;;5068844;28;19908;-77
2023/05/16 02:00:40;;;;;;;;;;;13.70;99.90;;;;;;5068774;28;20007;-77
2023/05/16 02:03:06;;;;;;;;;;;13.70;99.90;;;;;;5067524;28;19999;-78
2023/05/16 02:05:32;;;;;;;;;;;13.70;99.90;;;;;;5068951;28;19950;-78
2023/05/16 02:07:58;;;;;;;;;;;13.70;99.90;;;;;;5068712;28;19943;-77
2023/05/16 02:10:24;;;;;;;;;;;13.80;99.90;;;;;;5068891;28;19908;-77
2023/05/16 02:12:50;;;;;;;;;;;13.70;99.90;;;;;;5068701;28;19962;-78
2023/05/16 02:15:16;;;;;;;;;;;13.70;99.90;;;;;;5068693;28;19919;-78
2023/05/16 02:17:41;;;;;;;;;;;13.70;99.90;;;;;;5068680;28;19908;-77
2023/05/16 02:20:10;;;;;;;;;;;13.70;99.90;;;;;;5068670;28;20334;-77
2023/05/16 02:22:37;;;;;;;;;;;13.70;99.90;;;;;;5067117;28;19905;-78
2023/05/16 02:25:04;;;;;;;;;;;13.60;99.90;;;;;;5068612;28;20304;-77
2023/05/16 02:27:29;;;;;;;;;;;13.60;99.90;;;;;;5068275;28;19931;-78
2023/05/16 02:29:55;;;;;;;;;;;13.60;99.90;;;;;;5068485;28;19908;-76
2023/05/16 02:32:20;;;;;;;;;;;13.50;99.90;;;;;;5068429;28;20406;-77
2023/05/16 02:34:46;;;;;;;;;;;13.50;99.90;;;;;;5068239;28;20376;-79
2023/05/16 02:37:11;;;;;;;;;;;13.40;99.90;;;;;;5068487;28;19904;-77
2023/05/16 02:39:37;;;;;;;;;;;13.40;99.90;;;;;;5068318;28;19915;-77
2023/05/16 02:42:03;;;;;;;;;;;13.30;99.90;;;;;;5068350;28;19951;-78
2023/05/16 02:44:29;;;;;;;;;;;13.20;99.90;;;;;;5068446;28;19912;-78
2023/05/16 02:46:54;;;;;;;;;;;13.20;99.90;;;;;;5068033;28;19916;-76
2023/05/16 02:49:20;;;;;;;;;;;13.10;99.90;;;;;;5068271;28;19974;-77
2023/05/16 02:51:46;;;;;;;;;;;13.10;99.90;;;;;;5068380;28;19915;-77
2023/05/16 02:54:11;;;;;;;;;;;13.10;99.90;;;;;;5068348;28;19914;-76
2023/05/16 02:56:37;;;;;;;;;;;13.00;99.90;;;;;;5068416;28;19915;-78
2023/05/16 02:59:03;;;;;;;;;;;13.00;99.90;;;;;;5068488;28;19916;-78
2023/05/16 03:01:29;;;;;;;;;;;13.00;99.90;;;;;;5071690;28;20301;-78
2023/05/16 03:03:54;;;;;;;;;;;13.00;99.90;;;;;;5070383;28;19908;-80
2023/05/16 03:06:20;;;;;;;;;;;12.90;99.90;;;;;;5070469;28;19995;-78
2023/05/16 03:08:46;;;;;;;;;;;12.90;99.90;;;;;;5070061;28;19916;-79
2023/05/16 03:11:11;;;;;;;;;;;12.90;99.90;;;;;;5071803;28;19962;-77
2023/05/16 03:13:37;;;;;;;;;;;12.90;99.90;;;;;;5071774;28;19995;-77
2023/05/16 03:16:03;;;;;;;;;;;12.90;99.90;;;;;;5071637;28;19916;-77
2023/05/16 03:18:28;;;;;;;;;;;12.90;99.90;;;;;;5071538;28;19931;-78
2023/05/16 03:20:54;;;;;;;;;;;12.90;99.90;;;;;;5070273;28;20395;-78
2023/05/16 03:23:20;;;;;;;;;;;12.90;99.90;;;;;;5071585;28;19912;-78
2023/05/16 03:25:46;;;;;;;;;;;12.90;99.90;;;;;;5071392;28;19908;-77
2023/05/16 03:28:11;;;;;;;;;;;12.80;99.90;;;;;;5071114;28;20432;-77
2023/05/16 03:30:37;;;;;;;;;;;12.80;99.90;;;;;;5071101;28;19908;-78
2023/05/16 03:33:03;;;;;;;;;;;12.90;99.90;;;;;;5070044;28;19916;-78
2023/05/16 03:35:29;;;;;;;;;;;12.90;99.90;;;;;;5070244;28;19908;-78
2023/05/16 03:37:54;;;;;;;;;;;12.90;99.90;;;;;;5071294;28;20321;-79
2023/05/16 03:40:20;;;;;;;;;;;12.90;99.90;;;;;;5071362;28;19913;-78
2023/05/16 03:42:46;;;;;;;;;;;12.90;99.90;;;;;;5074196;28;20372;-79
2023/05/16 03:45:11;;;;;;;;;;;13.00;99.90;;;;;;5069766;28;19916;-76
2023/05/16 03:47:37;;;;;;;;;;;13.00;99.90;;;;;;5071004;28;19908;-78
2023/05/16 03:50:03;;;;;;;;;;;13.00;99.90;;;;;;5069799;28;19912;-76
2023/05/16 03:52:29;;;;;;;;;;;13.00;99.90;;;;;;5071062;28;19949;-78
2023/05/16 03:54:54;;;;;;;;;;;13.00;99.90;;;;;;5069768;28;19913;-79
2023/05/16 03:57:20;;;;;;;;;;;13.00;99.90;;;;;;5070800;28;20309;-79
2023/05/16 03:59:45;;;;;;;;;;;13.10;99.90;;;;;;5070710;28;20391;-78
2023/05/16 04:02:11;;;;;;;;;;;13.10;99.90;;;;;;5070619;28;19951;-79
2023/05/16 04:04:36;;;;;;;;;;;13.10;99.90;;;;;;5069750;28;19908;-78
2023/05/16 04:07:02;;;;;;;;;;;13.20;99.90;;;;;;5070551;28;19923;-78
2023/05/16 04:09:28;;;;;;;;;;;13.20;99.90;;;;;;5069200;28;19927;-78
2023/05/16 04:11:56;;;;;;;;;;;13.20;99.90;;;;;;5069681;28;20494;-78
2023/05/16 04:14:22;;;;;;;;;;;13.20;99.90;;;;;;5070608;28;19997;-79
2023/05/16 04:16:47;;;;;;;;;;;13.20;99.90;;;;;;5070153;28;19978;-79
2023/05/16 04:19:13;;;;;;;;;;;13.30;99.90;;;;;;5070581;28;19912;-78
2023/05/16 04:21:39;;;;;;;;;;;13.20;99.90;;;;;;5070419;28;19919;-78
2023/05/16 04:24:04;;;;;;;;;;;13.30;99.90;;;;;;5070265;28;19908;-78
2023/05/16 04:26:30;;;;;;;;;;;13.30;99.90;;;;;;5070459;28;20011;-77
2023/05/16 04:28:57;;;;;;;;;;;13.30;99.90;;;;;;5068414;28;19920;-78
2023/05/16 04:31:24;;;;;;;;;;;13.30;99.90;;;;;;5070252;28;20383;-78
2023/05/16 04:33:49;;;;;;;;;;;13.40;99.90;;;;;;5070208;28;19970;-79
2023/05/16 04:36:15;;;;;;;;;;;13.40;99.90;;;;;;5068739;28;19947;-78
2023/05/16 04:38:41;;;;;;;;;;;13.50;99.90;;;;;;5069957;28;20003;-78
2023/05/16 04:41:07;;;;;;;;;;;13.50;99.90;;;;;;5070006;28;20466;-79
2023/05/16 04:43:32;;;;;;;;;;;13.60;99.90;;;;;;5069955;28;19913;-78
2023/05/16 04:45:58;;;;;;;;;;;13.60;99.90;;;;;;5069816;28;19908;-79
2023/05/16 04:48:24;;;;;;;;;;;13.70;99.90;;;;;;5069755;28;20525;-79
2023/05/16 04:50:50;;;;;;;;;;;13.70;99.90;;;;;;5069475;28;19958;-79
2023/05/16 04:53:15;;;;;;;;;;;13.80;99.90;;;;;;5069519;28;20043;-79
2023/05/16 04:55:41;;;;;;;;;;;13.80;99.90;;;;;;5069895;28;19950;-79
2023/05/16 04:58:07;;;;;;;;;;;13.90;99.90;;;;;;5069623;28;19977;-78
2023/05/16 05:00:32;;;;;;;;;;;14.00;99.90;;;;;;5069026;28;19908;-78
2023/05/16 05:02:58;;;;;;;;;;;14.00;99.90;;;;;;5069449;28;20373;-79
2023/05/16 05:05:23;;;;;;;;;;;14.10;99.90;;;;;;5069457;28;19908;-78
2023/05/16 05:07:49;;;;;;;;;;;14.10;99.90;;;;;;5068988;28;19912;-79
2023/05/16 05:10:15;;;;;;;;;;;14.10;99.90;;;;;;5069039;28;20397;-79
2023/05/16 05:12:40;;;;;;;;;;;14.10;99.90;;;;;;5067784;28;19913;-79
2023/05/16 05:15:06;;;;;;;;;;;14.20;99.90;;;;;;5069416;28;19904;-79
2023/05/16 05:17:32;;;;;;;;;;;14.20;99.90;;;;;;5069238;28;20383;-79
2023/05/16 05:19:57;;;;;;;;;;;14.30;99.90;;;;;;5068981;28;20411;-79
2023/05/16 05:22:23;;;;;;;;;;;14.30;99.90;;;;;;5068150;28;19918;-79
2023/05/16 05:24:48;;;;;;;;;;;14.40;99.90;;;;;;5067610;28;19904;-79
2023/05/16 05:27:14;;;;;;;;;;;14.50;99.90;;;;;;5067569;28;19916;-79
2023/05/16 05:29:40;;;;;;;;;;;14.50;99.90;;;;;;5067579;28;19999;-79
2023/05/16 05:32:07;;;;;;;;;;;14.60;99.90;;;;;;5069183;28;20384;-79
2023/05/16 05:34:32;;;;;;;;;;;14.60;99.90;;;;;;5068868;28;19915;-78
2023/05/16 05:36:58;;;;;;;;;;;14.70;99.90;;;;;;5068953;28;20297;-79
2023/05/16 05:39:24;;;;;;;;;;;14.70;99.90;;;;;;5069079;28;20003;-79
2023/05/16 05:41:49;;;;;;;;;;;14.70;99.90;;;;;;5069126;28;19916;-79
2023/05/16 05:44:15;;;;;;;;;;;14.70;99.90;;;;;;5068895;28;19954;-78
2023/05/16 05:46:41;;;;;;;;;;;14.70;99.90;;;;;;5067771;28;19962;-79
2023/05/16 05:49:06;;;;;;;;;;;14.70;99.90;;;;;;5068958;28;19930;-78
2023/05/16 05:51:32;;;;;;;;;;;14.80;99.90;;;;;;5067601;28;19912;-78
2023/05/16 05:53:57;;;;;;;;;;;14.80;99.90;;;;;;5068744;28;20393;-78
2023/05/16 05:56:23;;;;;;;;;;;14.80;99.90;;;;;;5068914;28;20331;-78
2023/05/16 05:58:49;;;;;;;;;;;14.80;99.90;;;;;;5067345;28;19946;-79
2023/05/16 06:01:15;;;;;;;;;;;14.80;99.90;;;;;;5067542;28;19915;-78
2023/05/16 06:03:41;;;;;;;;;;;14.80;99.90;;;;;;5067466;28;20409;-78
2023/05/16 06:06:07;;;;;;;;;;;14.80;99.90;;;;;;5067682;28;19909;-78
2023/05/16 06:08:33;;;;;;;;;;;14.90;99.90;;;;;;5068287;28;19970;-77
2023/05/16 06:10:59;;;;;;;;;;;14.80;99.90;;;;;;5068625;28;20339;-78
2023/05/16 06:13:24;;;;;;;;;;;14.90;99.90;;;;;;5068453;28;20312;-77
2023/05/16 06:15:50;;;;;;;;;;;14.90;99.90;;;;;;5068814;28;20321;-77
2023/05/16 06:18:16;;;;;;;;;;;14.90;99.90;;;;;;5067258;28;19919;-77
2023/05/16 06:20:41;;;;;;;;;;;14.90;99.90;;;;;;5068289;28;19908;-78
2023/05/16 06:23:07;;;;;;;;;;;14.90;99.90;;;;;;5068692;28;19931;-78
2023/05/16 06:25:32;;;;;;;;;;;14.90;99.90;;;;;;5067247;28;20384;-79
2023/05/16 06:27:58;;;;;;;;;;;14.90;99.90;;;;;;5068126;28;19920;-79
2023/05/16 06:30:23;;;;;;;;;;;14.90;99.90;;;;;;5068251;28;19952;-77
2023/05/16 06:32:49;;;;;;;;;;;14.80;99.90;;;;;;5068502;28;19912;-78
2023/05/16 06:35:15;;;;;;;;;;;14.80;99.90;;;;;;5070463;28;19908;-78
2023/05/16 06:37:40;;;;;;;;;;;14.70;99.90;;;;;;5072689;28;19908;-76
2023/05/16 06:40:06;;;;;;;;;;;14.70;99.90;;;;;;5070845;28;20415;-78
2023/05/16 06:42:32;;;;;;;;;;;14.60;99.90;;;;;;5071138;28;19955;-76
2023/05/16 06:44:57;;;;;;;;;;;14.60;99.90;;;;;;5072376;28;19946;-78
2023/05/16 06:47:23;;;;;;;;;;;14.60;99.90;;;;;;5072214;28;19915;-79
2023/05/16 06:49:49;;;;;;;;;;;14.50;99.90;;;;;;5072067;28;19912;-76
2023/05/16 06:52:15;;;;;;;;;;;14.40;99.90;;;;;;5070795;28;19908;-76
2023/05/16 06:54:41;;;;;;;;;;;14.50;99.90;;;;;;5070487;28;19913;-77
2023/05/16 06:57:07;;;;;;;;;;;14.40;99.90;;;;;;5070422;28;19908;-75
2023/05/16 06:59:33;;;;;;;;;;;14.40;99.90;;;;;;5071985;28;20286;-77
2023/05/16 07:02:00;;;;;;;;;;;14.40;99.90;;;;;;5070761;28;20498;-77
2023/05/16 07:04:25;;;;;;;;;;;14.40;99.90;;;;;;5070476;28;19908;-76
2023/05/16 07:06:51;;;;;;;;;;;14.40;99.90;;;;;;5071395;28;19919;-78
2023/05/16 07:09:17;;;;;;;;;;;14.40;99.90;;;;;;5071429;28;20012;-78
2023/05/16 07:11:43;;;;;;;;;;;14.40;99.90;;;;;;5071694;28;19939;-77
2023/05/16 07:14:08;;;;;;;;;;;14.40;99.90;;;;;;5070282;28;19915;-77
2023/05/16 07:16:34;;;;;;;;;;;14.40;99.90;;;;;;5071500;28;19912;-77
2023/05/16 07:19:00;;;;;;;;;;;14.40;99.90;;;;;;5071741;28;19908;-78
2023/05/16 07:21:25;;;;;;;;;;;14.30;99.90;;;;;;5071384;28;19908;-77
2023/05/16 07:23:51;;;;;;;;;;;14.30;99.90;;;;;;5070387;28;19913;-77
2023/05/16 07:26:17;;;;;;;;;;;14.30;99.90;;;;;;5071641;28;19954;-77
2023/05/16 07:28:43;;;;;;;;;;;14.30;99.90;;;;;;5069647;28;19924;-78
2023/05/16 07:31:08;;;;;;;;;;;14.30;99.90;;;;;;5071518;28;19908;-78
2023/05/16 07:33:34;;;;;;;;;;;14.30;99.90;;;;;;5071420;28;19914;-77
2023/05/16 07:36:00;;;;;;;;;;;14.20;99.90;;;;;;5071350;28;19962;-79
2023/05/16 07:38:25;;;;;;;;;;;14.30;99.90;;;;;;5071315;28;19916;-77
2023/05/16 07:40:51;;;;;;;;;;;14.20;99.90;;;;;;5070970;28;19962;-77
2023/05/16 07:43:17;;;;;;;;;;;14.20;99.90;;;;;;5069985;28;19931;-77
2023/05/16 07:45:42;;;;;;;;;;;14.20;99.90;;;;;;5070309;28;19908;-76
2023/05/16 07:48:08;;;;;;;;;;;14.20;99.90;;;;;;5070493;28;20384;-76
2023/05/16 07:50:34;;;;;;;;;;;14.10;99.90;;;;;;5070989;28;19908;-77
2023/05/16 07:52:59;;;;;;;;;;;14.20;99.90;;;;;;5070990;28;19908;-77
2023/05/16 07:55:25;;;;;;;;;;;14.10;99.90;;;;;;5070621;28;19955;-77
2023/05/16 07:57:50;;;;;;;;;;;14.10;99.90;;;;;;5070894;28;19915;-76
2023/05/16 08:00:16;;;;;;;;;;;14.10;99.90;;;;;;5070612;28;20079;-77
2023/05/16 08:02:42;;;;;;;;;;;14.10;99.90;;;;;;5070394;28;19912;-78
2023/05/16 08:05:08;;;;;;;;;;;14.10;99.90;;;;;;5070653;28;19916;-76
2023/05/16 08:07:33;;;;;;;;;;;14.10;99.90;;;;;;5069363;28;19918;-76
2023/05/16 08:09:59;;;;;;;;;;;14.10;99.90;;;;;;5069239;28;19952;-76
2023/05/16 08:12:26;;;;;;;;;;;14.10;99.90;;;;;;5070675;28;19908;-76
2023/05/16 08:14:51;;;;;;;;;;;14.10;99.90;;;;;;5070213;28;19935;-76
2023/05/16 08:17:17;;;;;;;;;;;14.10;99.90;;;;;;5070676;28;20339;-76
2023/05/16 08:19:42;;;;;;;;;;;14.10;99.90;;;;;;5070596;28;19908;-77
2023/05/16 08:22:08;;;;;;;;;;;14.10;99.90;;;;;;5070338;28;19923;-77
2023/05/16 08:24:34;;;;;;;;;;;14.10;99.90;;;;;;5070098;28;19908;-77
2023/05/16 08:27:00;;;;;;;;;;;14.20;99.90;;;;;;5070035;28;19931;-76
2023/05/16 08:29:25;;;;;;;;;;;14.20;99.90;;;;;;5068671;28;20369;-77
2023/05/16 08:31:51;;;;;;;;;;;14.30;99.90;;;;;;5069245;28;19959;-77
2023/05/16 08:34:16;;;;;;;;;;;14.30;99.90;;;;;;5070174;28;20446;-77
2023/05/16 08:36:42;;;;;;;;;;;14.40;99.90;;;;;;5068471;28;19983;-77
2023/05/16 08:39:10;;;;;;;;;;;14.40;99.90;;;;;;5070197;28;20372;-77
2023/05/16 08:41:36;;;;;;;;;;;14.50;99.90;;;;;;5069961;28;19963;-76
2023/05/16 08:44:01;;;;;;;;;;;14.50;99.90;;;;;;5072100;28;19912;-77
2023/05/16 08:46:27;;;;;;;;;;;14.60;99.90;;;;;;5069812;28;19908;-77
2023/05/16 08:48:53;;;;;;;;;;;14.70;99.90;;;;;;5069472;28;19916;-77
2023/05/16 08:51:19;;;;;;;;;;;14.80;99.90;;;;;;5069620;28;19914;-77
2023/05/16 08:53:51;;;;;;;;;;;14.80;99.90;;;;;;5069682;28;19915;-76
2023/05/16 08:56:17;;;;;;;;;;;14.90;99.90;;;;;;5069584;28;20011;-77
2023/05/16 08:58:43;;;;;;;;;;;14.90;99.90;;;;;;5069040;28;20423;-78
2023/05/16 09:01:09;;;;;;;;;;;15.00;99.90;;;;;;5069453;28;19908;-76
2023/05/16 09:03:36;;;;;;;;;;;15.10;99.90;;;;;;5069477;28;19916;-76
2023/05/16 09:06:02;;;;;;;;;;;15.10;99.90;;;;;;5068102;28;20395;-76
2023/05/16 09:08:27;;;;;;;;;;;15.10;99.90;;;;;;5069264;28;19916;-76
2023/05/16 09:10:53;;;;;;;;;;;15.20;99.90;;;;;;5069029;28;19995;-76
2023/05/16 09:13:19;;;;;;;;;;;15.40;99.90;;;;;;5069240;28;20287;-76
2023/05/16 09:15:44;;;;;;;;;;;15.40;99.90;;;;;;5069362;28;19919;-76
2023/05/16 09:18:13;;;;;;;;;;;15.40;99.90;;;;;;5067778;28;19908;-77
2023/05/16 09:20:45;;;;;;;;;;;15.50;99.90;;;;;;5067748;28;19908;-78
2023/05/16 09:23:10;;;;;;;;;;;15.50;99.90;;;;;;5069111;28;19962;-77
2023/05/16 09:25:38;;;;;;;;;;;15.50;99.90;;;;;;5069069;28;19948;-77
2023/05/16 09:28:04;;;;;;;;;;;15.50;99.90;;;;;;5068790;28;20015;-76
2023/05/16 09:30:30;;;;;;;;;;;15.50;99.90;;;;;;5069428;28;20007;-76
2023/05/16 09:32:56;;;;;;;;;;;15.50;99.90;;;;;;5069181;28;20000;-77
2023/05/16 09:35:22;;;;;;;;;;;15.60;99.90;;;;;;5068896;28;19952;-77
2023/05/16 09:37:48;;;;;;;;;;;15.70;99.90;;;;;;5069059;28;19908;-76
2023/05/16 09:40:14;;;;;;;;;;;15.70;99.90;;;;;;5069072;28;20494;-76
2023/05/16 09:42:41;;;;;;;;;;;15.70;99.90;;;;;;5069068;28;20280;-78
2023/05/16 09:45:10;;;;;;;;;;;15.70;99.90;;;;;;5069139;28;19905;-77
2023/05/16 09:47:44;;;;;;;;;;;15.80;99.90;;;;;;5068851;28;19962;-76
2023/05/16 09:50:10;;;;;;;;;;;15.80;99.90;;;;;;5068496;28;19911;-77
2023/05/16 09:52:36;;;;;;;;;;;15.90;99.90;;;;;;5068648;28;20295;-76
2023/05/16 09:55:05;;;;;;;;;;;16.00;99.90;;;;;;5068662;28;19913;-77
2023/05/16 09:57:31;;;;;;;;;;;16.10;99.90;;;;;;5067896;28;20471;-77
2023/05/16 09:59:58;;;;;;;;;;;16.10;99.90;;;;;;5068026;28;20010;-76
2023/05/16 10:02:24;;;;;;;;;;;16.20;99.90;;;;;;5067926;28;20388;-77
2023/05/16 10:04:50;;;;;;;;;;;16.30;99.90;;;;;;5067846;28;20405;-78
2023/05/16 10:07:15;;;;;;;;;;;16.30;99.90;;;;;;5068093;28;19913;-76
2023/05/16 10:09:42;;;;;;;;;;;16.40;99.90;;;;;;5068105;28;19920;-76
2023/05/16 10:12:10;;;;;;;;;;;16.40;99.90;;;;;;5072687;28;20033;-77
2023/05/16 10:14:36;;;;;;;;;;;16.40;99.90;;;;;;5072485;28;19913;-77
2023/05/16 10:17:09;;;;;;;;;;;16.30;99.90;;;;;;5070689;28;20359;-76
2023/05/16 10:19:38;;;;;;;;;;;16.30;99.90;;;;;;5072413;28;19909;-75
2023/05/16 10:22:04;;;;;;;;;;;16.20;99.90;;;;;;5072192;28;19908;-77
2023/05/16 10:24:50;;;;;;;;;;;16.30;99.90;;;;;;5072317;28;19915;-77
2023/05/16 10:27:16;;;;;;;;;;;16.20;99.90;;;;;;5069962;28;20440;-76
2023/05/16 10:29:42;;;;;;;;;;;16.10;99.90;;;;;;5072107;28;20011;-76
2023/05/16 10:32:09;;;;;;;;;;;16.00;99.90;;;;;;5070894;28;20014;-76
2023/05/16 10:34:34;;;;;;;;;;;15.90;99.90;;;;;;5072175;28;19904;-77
2023/05/16 10:37:00;;;;;;;;;;;16.00;99.90;;;;;;5072168;28;19908;-75
2023/05/16 10:39:27;;;;;;;;;;;15.90;99.90;;;;;;5071933;28;20690;-76
2023/05/16 10:41:52;;;;;;;;;;;15.90;99.90;;;;;;5072007;28;19905;-77
2023/05/16 10:44:18;;;;;;;;;;;16.00;99.90;;;;;;5072159;28;19958;-76
2023/05/16 10:46:45;;;;;;;;;;;16.10;99.90;;;;;;5070134;28;20002;-77
2023/05/16 10:49:21;;;;;;;;;;;16.10;99.90;;;;;;5071853;28;19923;-76
2023/05/16 10:52:00;;;;;;;;;;;16.10;99.90;;;;;;5070680;28;19919;-76
2023/05/16 10:54:32;;;;;;;;;;;16.10;99.90;;;;;;5071704;28;19919;-76
2023/05/16 10:57:02;;;;;;;;;;;16.10;99.90;;;;;;5071814;28;19909;-77
2023/05/16 10:59:28;;;;;;;;;;;16.10;99.90;;;;;;5070272;28;19908;-78
2023/05/16 11:01:54;;;;;;;;;;;16.10;99.90;;;;;;5071168;28;19908;-77
2023/05/16 11:04:20;;;;;;;;;;;16.10;99.90;;;;;;5071518;28;19908;-76
2023/05/16 11:06:48;;;;;;;;;;;16.00;99.90;;;;;;5071246;28;20023;-78
2023/05/16 11:09:21;;;;;;;;;;;16.10;99.90;;;;;;5071278;28;19916;-77
2023/05/16 11:12:02;;;;;;;;;;;16.10;99.90;;;;;;5071706;28;19908;-76
2023/05/16 11:14:28;;;;;;;;;;;16.10;99.90;;;;;;5069989;28;19953;-78
2023/05/16 11:17:02;;;;;;;;;;;16.10;99.90;;;;;;5069775;28;20364;-77
2023/05/16 11:19:29;;;;;;;;;;;16.10;99.90;;;;;;5071520;28;19908;-78
2023/05/16 11:22:07;;;;;;;;;;;16.20;99.90;;;;;;5070851;28;19912;-77
2023/05/16 11:24:34;;;;;;;;;;;16.30;99.90;;;;;;5071344;28;19916;-76
2023/05/16 11:27:00;;;;;;;;;;;16.30;99.90;;;;;;5070625;28;19961;-76
2023/05/16 11:29:35;;;;;;;;;;;16.30;99.90;;;;;;5070970;28;20367;-77
2023/05/16 11:32:02;;;;;;;;;;;16.30;99.90;;;;;;5071138;28;20431;-77
2023/05/16 11:34:28;;;;;;;;;;;16.50;99.90;;;;;;5071001;28;20203;-77
2023/05/16 11:36:55;;;;;;;;;;;16.50;99.90;;;;;;5070838;28;19951;-76
2023/05/16 11:39:21;;;;;;;;;;;16.50;99.90;;;;;;5071096;28;20368;-77
2023/05/16 11:41:46;;;;;;;;;;;16.60;99.90;;;;;;5066491;28;19908;-77
2023/05/16 11:44:12;;;;;;;;;;;16.70;99.90;;;;;;5070736;28;19905;-78
2023/05/16 11:46:39;;;;;;;;;;;16.70;99.90;;;;;;5071172;28;20375;-78
2023/05/16 11:49:06;;;;;;;;;;;16.80;99.90;;;;;;5070980;28;20031;-76
2023/05/16 11:51:33;;;;;;;;;;;16.80;99.90;;;;;;5069411;28;19912;-78
2023/05/16 11:53:59;;;;;;;;;;;16.80;99.90;;;;;;5070822;28;19909;-76
2023/05/16 11:56:26;;;;;;;;;;;16.90;99.90;;;;;;5070578;28;19915;-78
2023/05/16 11:58:51;;;;;;;;;;;17.00;99.90;;;;;;5070265;28;19918;-77
2023/05/16 12:01:17;;;;;;;;;;;16.90;99.90;;;;;;5069163;28;19908;-78
2023/05/16 12:03:43;;;;;;;;;;;16.80;99.90;;;;;;5070556;28;19993;-78
2023/05/16 12:06:09;;;;;;;;;;;16.90;99.90;;;;;;5069291;28;20384;-76
2023/05/16 12:08:34;;;;;;;;;;;16.90;99.90;;;;;;5070785;28;19924;-78
2023/05/16 12:11:00;;;;;;;;;;;16.90;99.90;;;;;;5070289;28;20392;-76
2023/05/16 12:13:26;;;;;;;;;;;16.90;99.90;;;;;;5070302;28;19915;-77
2023/05/16 12:15:52;;;;;;;;;;;16.90;99.90;;;;;;5070349;28;19915;-77
2023/05/16 12:18:17;;;;;;;;;;;16.90;99.90;;;;;;5069929;28;20319;-78
2023/05/16 12:20:43;;;;;;;;;;;16.90;99.90;;;;;;5069981;28;19904;-77
2023/05/16 12:23:10;;;;;;;;;;;16.90;99.90;;;;;;5070241;28;19908;-76
2023/05/16 12:25:37;;;;;;;;;;;16.90;99.90;;;;;;5070249;28;19908;-77
2023/05/16 12:28:03;;;;;;;;;;;17.00;99.90;;;;;;5069903;28;19959;-78
2023/05/16 12:30:31;;;;;;;;;;;17.10;99.90;;;;;;5070042;28;20013;-78
2023/05/16 12:32:56;;;;;;;;;;;17.20;99.90;;;;;;5069272;28;19908;-77
2023/05/16 12:35:22;;;;;;;;;;;17.30;99.90;;;;;;5070628;28;20409;-78
2023/05/16 12:37:48;;;;;;;;;;;17.30;99.90;;;;;;5069853;28;19908;-77
2023/05/16 12:40:14;;;;;;;;;;;17.50;99.90;;;;;;5069872;28;20495;-77
2023/05/16 12:42:42;;;;;;;;;;;17.40;99.90;;;;;;5069693;28;20335;-77
2023/05/16 12:45:14;;;;;;;;;;;17.30;99.90;;;;;;5069720;28;20385;-78
2023/05/16 12:47:40;;;;;;;;;;;17.30;99.90;;;;;;5072876;28;20037;-77
2023/05/16 12:50:16;;;;;;;;;;;17.30;99.90;;;;;;5069974;28;19994;-78
2023/05/16 12:52:50;;;;;;;;;;;17.40;99.90;;;;;;5068205;28;19935;-77
2023/05/16 12:55:17;;;;;;;;;;;17.60;99.90;;;;;;5068225;28;20008;-78
2023/05/16 12:57:43;;;;;;;;;;;17.70;99.90;;;;;;5069592;28;20027;-78
2023/05/16 13:00:11;;;;;;;;;;;18.00;99.90;;;;;;5069675;28;20098;-77
2023/05/16 13:02:36;;;;;;;;;;;18.20;99.90;;;;;;5069333;28;19908;-79
2023/05/16 13:05:03;;;;;;;;;;;18.60;99.90;;;;;;5069507;28;20288;-77
2023/05/16 13:07:29;;;;;;;;;;;18.80;99.90;;;;;;5069254;28;19904;-79
2023/05/16 13:09:55;;;;;;;;;;;18.80;99.90;;;;;;5069299;28;20520;-77
2023/05/16 13:12:25;;;;;;;;;;;18.90;99.90;;;;;;5069268;28;19912;-79
2023/05/16 13:14:51;;;;;;;;;;;19.00;99.90;;;;;;5069017;28;19909;-80
2023/05/16 13:17:16;;;;;;;;;;;19.10;99.90;;;;;;5069162;28;20262;-78
2023/05/16 13:19:42;;;;;;;;;;;19.00;99.90;;;;;;5069161;28;19913;-78
2023/05/16 13:22:08;;;;;;;;;;;19.00;99.90;;;;;;5069189;28;20449;-78
2023/05/16 13:24:33;;;;;;;;;;;18.90;99.90;;;;;;5067602;28;19914;-78
2023/05/16 13:26:59;;;;;;;;;;;18.90;99.90;;;;;;5067896;28;19908;-78
2023/05/16 13:29:24;;;;;;;;;;;18.60;99.90;;;;;;5068663;28;19923;-78
2023/05/16 13:31:50;;;;;;;;;;;18.50;99.90;;;;;;5069518;28;19911;-78
2023/05/16 13:34:15;;;;;;;;;;;18.50;99.90;;;;;;5068990;28;20400;-79
2023/05/16 13:36:41;;;;;;;;;;;18.30;99.90;;;;;;5068958;28;20372;-79
2023/05/16 13:39:07;;;;;;;;;;;18.40;99.90;;;;;;5068887;28;19905;-78
2023/05/16 13:41:36;;;;;;;;;;;18.20;99.90;;;;;;5067414;28;19989;-77
2023/05/16 13:44:02;;;;;;;;;;;18.00;99.90;;;;;;5067637;28;20014;-76
2023/05/16 13:46:27;;;;;;;;;;;17.80;99.90;;;;;;5067557;28;20157;-77
2023/05/16 13:48:53;;;;;;;;;;;17.60;99.90;;;;;;5068617;28;19916;-78
2023/05/16 13:51:18;;;;;;;;;;;17.50;99.90;;;;;;5069073;28;19915;-76
2023/05/16 13:53:44;;;;;;;;;;;17.40;99.90;;;;;;5068907;28;19916;-77
2023/05/16 13:56:09;;;;;;;;;;;17.40;99.90;;;;;;5069022;28;20368;-78
2023/05/16 13:58:35;;;;;;;;;;;17.20;99.90;;;;;;5068516;28;20030;-78
2023/05/16 14:01:01;;;;;;;;;;;17.40;99.90;;;;;;5067322;28;19915;-77
2023/05/16 14:03:26;;;;;;;;;;;17.30;99.90;;;;;;5067297;28;20377;-77
2023/05/16 14:05:52;;;;;;;;;;;17.40;99.90;;;;;;5068615;28;19957;-77
2023/05/16 14:08:17;;;;;;;;;;;17.40;99.90;;;;;;5067127;28;20491;-78
2023/05/16 14:10:43;;;;;;;;;;;17.60;99.90;;;;;;5068354;28;19911;-78
2023/05/16 14:13:08;;;;;;;;;;;17.60;99.90;;;;;;5068705;28;20377;-78